• Join FlightAware (Why Join?)
  • Login
  • US Flag 
05:18PM EDT


 

Airport Tracker/Info


-or-


 

Live Flight TrackerFlight Track Log ✈ N400PU ✈ 21-Nov-2013 ✈ CYQG - KFWA

Flight Track Log - Related Links

Times and Time Zones

All times are in EST time to prevent confusion due to time zone crossing. See the N400PU flight status page for this flight to view local times or setup timezone preferences in your user account.

Time Position Orientation Groundspeed Altitude Reporting Facility
EST Latitude Longitude Course Direction KTS MPH feet Rate Location/Type
10:53AM 42.2742 -82.9678 199° South 150 173 1,400  Level Cleveland Center
10:54AM 42.2222 -82.9917 199° South 225 259 3,900 2,160 Climbing Cleveland Center
10:55AM 42.1722 -83.0028 189° South 229 264 5,600 2,040 Climbing Cleveland Center
10:55AM 42.1578 -83.0111 203° Southwest 258 297 6,000 1,980 Climbing Cleveland Center
10:56AM 42.1250 -83.0700 233° Southwest 251 289 7,700 1,860 Climbing Cleveland Center
10:57AM 42.0889 -83.1356 233° Southwest 221 254 9,600 1,080 Climbing Cleveland Center
10:58AM 42.0400 -83.2286 235° Southwest 259 298 10,000 180 Climbing Cleveland Center
10:59AM 41.9931 -83.3175 235° Southwest 282 325 10,000  Level Cleveland Center
11:00AM 41.9464 -83.4061 235° Southwest 288 331 10,000  Level Cleveland Center
11:01AM 41.9000 -83.4950 235° Southwest 288 331 10,000  Level Cleveland Center
11:02AM 41.8536 -83.5831 235° Southwest 283 326 10,000  Level Cleveland Center
11:03AM 41.8086 -83.6681 235° Southwest 280 322 10,000  Level Cleveland Center
11:04AM 41.7622 -83.7539 234° Southwest 283 326 10,000  Level Cleveland Center
11:05AM 41.7161 -83.8417 235° Southwest 287 330 10,000  Level Cleveland Center
11:06AM 41.6583 -83.9472 234° Southwest 292 336 10,000  Level Cleveland Center
11:07AM 41.6114 -84.0356 235° Southwest 291 335 10,000  Level Cleveland Center
11:08AM 41.5639 -84.1247 235° Southwest 296 341 10,000  Level Cleveland Center
11:09AM 41.5158 -84.2128 234° Southwest 295 339 10,000  Level Cleveland Center
11:10AM 41.4608 -84.3125 234° Southwest 294 338 10,000  Level Cleveland Center
11:11AM 41.4125 -84.4022 234° Southwest 297 342 10,000  Level Cleveland Center
11:12AM 41.3647 -84.4906 234° Southwest 296 341 10,000  Level Cleveland Center
11:13AM 41.3153 -84.5794 233° Southwest 298 343 10,000  Level Cleveland Center
11:14AM 41.2692 -84.6631 234° Southwest 285 328 10,000 -660 Level Cleveland Center
11:15AM 41.2314 -84.7428 238° Southwest 260 299 8,700 -1,500 Descending Cleveland Center
11:16AM 41.1992 -84.8181 240° Southwest 240 276 7,000 -1,620 Descending Cleveland Center
11:17AM 41.1664 -84.8925 240° Southwest 235 270 5,500 -1,500 Descending Cleveland Center
11:18AM 41.1267 -84.9828 240° Southwest 235 270 4,000 -960 Descending Cleveland Center
11:19AM 41.0889 -85.0514 234° Southwest 235 270 3,600 -660 Descending Cleveland Center
11:20AM 41.0514 -85.0964 222° Southwest 204 235 2,700 -900 Descending Cleveland Center
11:22AM 41.0244 -85.1325 225° Southwest 170 196 1,800 -540 Descending Cleveland Center
11:23AM 41.0017 -85.1606 223° Southwest 136 157 1,600 -240 Descending Cleveland Center